OAL210 LGRP-LGTS
Flight info
| Callsign | OAL210 |
|---|---|
| Flight time | N/A |
| Altitude | 30000 |
| Route | VANES UM601 ADESO UN133 KOROS DCT PELAS UT514 OSMOS |
| Aircraft | B738/M-SDE2E3FGHIRWXY/LB1 |
Departure
| Time | 2026-05-04 10:19 |
|---|---|
| Airport | Rhodes International Airport "Diagoras" (LGRP) |
Arrival
| Time | N/A |
|---|---|
| Airport | Thessaloniki Macedonia International Airport (LGTS) |
| Time | Latitude | Longitude | Altitude | Speed | Heading |
|---|---|---|---|---|---|
| 2026-05-04 10:12 | 36.40303 | 28.08939 | 27 ft | 0 kts | 120° |
| 2026-05-04 10:16 | 36.40326 | 28.08986 | 27 ft | 12 kts | 47° |
| 2026-05-04 10:16 | 36.40428 | 28.09072 | 27 ft | 20 kts | 36° |
| 2026-05-04 10:16 | 36.40517 | 28.09198 | 27 ft | 19 kts | 58° |
| 2026-05-04 10:16 | 36.40570 | 28.09343 | 27 ft | 18 kts | 68° |
| 2026-05-04 10:17 | 36.40612 | 28.09492 | 27 ft | 18 kts | 72° |
| 2026-05-04 10:17 | 36.40655 | 28.09642 | 27 ft | 20 kts | 70° |
| 2026-05-04 10:19 | 36.40636 | 28.08941 | 29 ft | 157 kts | 252° |
| 2026-05-04 10:19 | 36.40182 | 28.07502 | 454 ft | 187 kts | 251° |
| 2026-05-04 10:19 | 36.39839 | 28.06103 | 1914 ft | 153 kts | 282° |
| 2026-05-04 10:19 | 36.39854 | 28.04862 | 3097 ft | 145 kts | 273° |
| 2026-05-04 10:20 | 36.39726 | 28.03596 | 3750 ft | 155 kts | 275° |
| 2026-05-04 10:20 | 36.39630 | 28.02128 | 4051 ft | 188 kts | 274° |
| 2026-05-04 10:20 | 36.39505 | 28.00387 | 4280 ft | 216 kts | 272° |
| 2026-05-04 10:20 | 36.39359 | 27.98437 | 4632 ft | 236 kts | 271° |
| 2026-05-04 10:21 | 36.39191 | 27.96311 | 4963 ft | 256 kts | 271° |
| 2026-05-04 10:21 | 36.39013 | 27.94072 | 5683 ft | 264 kts | 270° |
| 2026-05-04 10:21 | 36.38832 | 27.91803 | 6674 ft | 264 kts | 270° |
| 2026-05-04 10:21 | 36.38652 | 27.89510 | 7517 ft | 268 kts | 270° |
| 2026-05-04 10:22 | 36.38329 | 27.84833 | 9209 ft | 276 kts | 275° |
| 2026-05-04 10:22 | 36.38356 | 27.82451 | 10073 ft | 277 kts | 278° |
| 2026-05-04 10:22 | 36.38409 | 27.80010 | 10573 ft | 295 kts | 277° |
| 2026-05-04 10:23 | 36.38459 | 27.77350 | 10775 ft | 320 kts | 276° |
| 2026-05-04 10:23 | 36.38500 | 27.74542 | 11325 ft | 330 kts | 276° |
| 2026-05-04 10:25 | 36.40860 | 27.54439 | 16410 ft | 352 kts | 282° |
| 2026-05-04 10:25 | 36.41244 | 27.51419 | 17186 ft | 352 kts | 283° |
| 2026-05-04 10:25 | 36.41621 | 27.48418 | 17964 ft | 354 kts | 282° |
| 2026-05-04 10:25 | 36.41996 | 27.45380 | 18639 ft | 355 kts | 282° |
| 2026-05-04 10:26 | 36.42377 | 27.42325 | 19170 ft | 363 kts | 281° |
| 2026-05-04 10:26 | 36.42770 | 27.39166 | 19474 ft | 374 kts | 281° |
| 2026-05-04 10:26 | 36.43031 | 27.37038 | 19837 ft | 377 kts | 281° |
| 2026-05-04 10:26 | 36.43559 | 27.32723 | 20427 ft | 386 kts | 281° |
| 2026-05-04 10:27 | 36.43963 | 27.29435 | 21096 ft | 386 kts | 280° |
| 2026-05-04 10:27 | 36.44237 | 27.27199 | 21480 ft | 389 kts | 279° |
| 2026-05-04 10:27 | 36.44645 | 27.23853 | 21960 ft | 394 kts | 280° |
| 2026-05-04 10:27 | 36.45057 | 27.20471 | 22471 ft | 399 kts | 279° |
| 2026-05-04 10:28 | 36.45473 | 27.17040 | 22920 ft | 404 kts | 279° |
| 2026-05-04 10:28 | 36.45894 | 27.13557 | 23352 ft | 410 kts | 278° |
| 2026-05-04 10:28 | 36.46320 | 27.10032 | 23781 ft | 415 kts | 278° |
| 2026-05-04 10:28 | 36.46750 | 27.06480 | 24296 ft | 415 kts | 279° |
| 2026-05-04 10:29 | 36.47184 | 27.02944 | 24904 ft | 413 kts | 279° |
| 2026-05-04 10:29 | 36.47584 | 26.99760 | 25353 ft | 414 kts | 279° |
| 2026-05-04 10:29 | 36.48034 | 26.96193 | 25832 ft | 415 kts | 280° |
| 2026-05-04 10:29 | 36.48469 | 26.92716 | 26527 ft | 409 kts | 281° |
| 2026-05-04 10:30 | 36.48897 | 26.89259 | 27344 ft | 401 kts | 281° |
| 2026-05-04 10:30 | 36.49301 | 26.85878 | 28181 ft | 393 kts | 280° |
| 2026-05-04 10:30 | 36.49691 | 26.82516 | 28784 ft | 391 kts | 280° |
| 2026-05-04 10:30 | 36.50077 | 26.79177 | 29287 ft | 391 kts | 280° |
| 2026-05-04 10:31 | 36.50466 | 26.75821 | 29751 ft | 392 kts | 281° |
| 2026-05-04 10:31 | 36.50849 | 26.72500 | 29900 ft | 386 kts | 280° |
| 2026-05-04 10:32 | 36.53954 | 26.52710 | 30110 ft | 385 kts | 306° |
| 2026-05-04 10:33 | 36.55691 | 26.50211 | 30096 ft | 381 kts | 318° |
| 2026-05-04 10:33 | 36.57866 | 26.48320 | 30106 ft | 384 kts | 331° |
| 2026-05-04 10:33 | 36.62729 | 26.45461 | 30108 ft | 389 kts | 334° |
| 2026-05-04 10:34 | 36.67675 | 26.42675 | 30101 ft | 391 kts | 334° |
| 2026-05-04 10:34 | 36.72613 | 26.39832 | 30100 ft | 390 kts | 333° |
| 2026-05-04 10:35 | 36.77522 | 26.36962 | 30108 ft | 390 kts | 334° |
| 2026-05-04 10:35 | 36.82446 | 26.34071 | 30100 ft | 392 kts | 334° |
| 2026-05-04 10:36 | 36.87348 | 26.31188 | 30110 ft | 392 kts | 334° |
| 2026-05-04 10:36 | 36.92288 | 26.28277 | 30089 ft | 392 kts | 334° |
| 2026-05-04 10:37 | 36.97220 | 26.25370 | 30107 ft | 392 kts | 334° |
| 2026-05-04 10:37 | 37.02118 | 26.22432 | 30121 ft | 389 kts | 334° |
| 2026-05-04 10:39 | 37.19218 | 26.11958 | 30107 ft | 388 kts | 334° |
| 2026-05-04 10:40 | 37.24037 | 26.08999 | 30120 ft | 387 kts | 334° |
| 2026-05-04 10:40 | 37.28943 | 26.05985 | 30130 ft | 400 kts | 335° |
| 2026-05-04 10:41 | 37.33977 | 26.02886 | 30113 ft | 402 kts | 335° |
| 2026-05-04 10:41 | 37.38798 | 25.99913 | 30123 ft | 392 kts | 336° |
| 2026-05-04 10:42 | 37.43720 | 25.96874 | 30113 ft | 398 kts | 335° |
| 2026-05-04 10:42 | 37.48711 | 25.93790 | 30133 ft | 400 kts | 334° |
| 2026-05-04 10:43 | 37.53635 | 25.90736 | 30128 ft | 392 kts | 336° |
| 2026-05-04 10:45 | 37.73470 | 25.78437 | 30124 ft | 392 kts | 336° |
| 2026-05-04 10:45 | 37.78389 | 25.75370 | 30124 ft | 397 kts | 336° |
| 2026-05-04 10:46 | 37.83400 | 25.72246 | 30146 ft | 405 kts | 336° |
| 2026-05-04 10:46 | 37.88397 | 25.69121 | 30132 ft | 395 kts | 336° |
| 2026-05-04 10:47 | 37.93302 | 25.66052 | 30128 ft | 396 kts | 336° |
| 2026-05-04 10:47 | 37.98263 | 25.62943 | 30126 ft | 398 kts | 334° |
| 2026-05-04 10:49 | 38.18069 | 25.50485 | 30142 ft | 405 kts | 336° |
| 2026-05-04 10:50 | 38.23082 | 25.47316 | 30139 ft | 399 kts | 335° |
| 2026-05-04 10:52 | 38.43145 | 25.34595 | 30137 ft | 402 kts | 335° |
| 2026-05-04 10:52 | 38.48145 | 25.31407 | 30144 ft | 400 kts | 335° |
| 2026-05-04 10:54 | 38.68238 | 25.18569 | 30143 ft | 401 kts | 335° |
| 2026-05-04 10:56 | 38.85924 | 25.07199 | 30142 ft | 412 kts | 336° |
| 2026-05-04 10:56 | 38.88485 | 25.05547 | 30144 ft | 412 kts | 336° |
| 2026-05-04 10:57 | 38.93596 | 25.02243 | 30150 ft | 411 kts | 336° |
| 2026-05-04 10:57 | 38.98611 | 24.98996 | 30158 ft | 408 kts | 334° |
| 2026-05-04 10:58 | 39.03668 | 24.95718 | 30147 ft | 408 kts | 335° |
| 2026-05-04 10:58 | 39.08573 | 24.92067 | 30139 ft | 413 kts | 318° |
| 2026-05-04 10:58 | 39.10376 | 24.89185 | 30156 ft | 417 kts | 301° |
| 2026-05-04 10:59 | 39.11454 | 24.85716 | 30172 ft | 420 kts | 287° |
| 2026-05-04 10:59 | 39.13002 | 24.78427 | 30156 ft | 423 kts | 287° |
| 2026-05-04 11:00 | 39.14547 | 24.71101 | 30145 ft | 423 kts | 287° |
| 2026-05-04 11:01 | 39.19770 | 24.47003 | 27995 ft | 385 kts | 287° |
| 2026-05-04 11:02 | 39.20477 | 24.43737 | 27650 ft | 382 kts | 287° |
| 2026-05-04 11:02 | 39.21188 | 24.40450 | 27283 ft | 379 kts | 287° |